Terminal Aerodrome Forecast
Issued by NWS Boston, MA

Current Version | Previous Version | Text Only | Print | Product List | Glossary On
Versions: 1 2 3 4 5 6 7 8 9 10 11 12 13 14 15 16 17 18 19 20 21 22 23 24 25 26 27 28 29 30 31 32 33 34
000
FTUS41 KBOX 191120
TAFBOS
TAF
KBOS 191120Z 1912/2018 02010KT 3SM BR OVC003
     FM191500 05010G20KT 4SM -SHRA BR OVC005
     FM191800 05011G23KT 3SM SHRA BR OVC008
     FM192100 05011G26KT 2SM +SHRA BR OVC008
     FM192300 05012G27KT 1 1/2SM -SHRA BR OVC008
     FM201300 03018G33KT 5SM -SHRA BR OVC008=

USA.gov is the U.S. government's official web portal to all federal, state and local government web resources and services.